Time;durP1;ratioP1;P1;durP2;ratioP2;P2;SDS_P1;SDS_P2;PMS_P1;PMS_P2;Temp;Humidity;BMP_temperature;BMP_pressure;BME280_temperature;BME280_humidity;BME280_pressure;Samples;Min_cycle;Max_cycle;Signal;HPM_P1;HPM_P2
2022/03/22 00:00:55;;;;;;;23.07;13.50;;;;;;;2.72;100.00;96629.47;5076891;28;20208;-58
2022/03/22 00:03:25;;;;;;;23.77;14.97;;;;;;;2.68;100.00;96625.84;5076244;28;20212;-61
2022/03/22 00:05:54;;;;;;;26.53;13.97;;;;;;;2.54;100.00;96630.63;5076446;28;20180;-61
2022/03/22 00:08:21;;;;;;;23.60;13.03;;;;;;;2.50;100.00;96620.81;5076150;28;20276;-61
2022/03/22 00:10:46;;;;;;;23.30;13.33;;;;;;;2.44;100.00;96622.09;5076327;28;20234;-61
2022/03/22 00:13:12;;;;;;;19.03;13.13;;;;;;;2.38;100.00;96618.78;5076117;28;20185;-61
2022/03/22 00:15:37;;;;;;;20.13;13.10;;;;;;;2.34;100.00;96622.44;5076293;28;20260;-61
2022/03/22 00:18:03;;;;;;;22.97;13.20;;;;;;;2.25;100.00;96619.75;5076182;28;20256;-59
2022/03/22 00:20:29;;;;;;;22.13;14.23;;;;;;;2.22;100.00;96625.78;5076095;28;20181;-58
2022/03/22 00:22:55;;;;;;;23.27;14.50;;;;;;;2.18;100.00;96624.03;5075833;28;20177;-58
2022/03/22 00:25:21;;;;;;;21.90;13.87;;;;;;;2.18;100.00;96624.03;5075338;28;20298;-58
2022/03/22 00:27:54;;;;;;;25.33;13.83;;;;;;;2.13;100.00;96616.94;5076048;28;20208;-57
2022/03/22 00:30:26;;;;;;;19.97;13.50;;;;;;;2.07;100.00;96623.59;5076593;28;20192;-58
2022/03/22 00:32:54;;;;;;;22.40;13.87;;;;;;;2.05;100.00;96625.81;5075825;28;20215;-57
2022/03/22 00:35:24;;;;;;;22.03;14.73;;;;;;;2.01;100.00;96619.44;5076186;28;20193;-58
2022/03/22 00:37:51;;;;;;;21.80;13.67;;;;;;;1.97;100.00;96625.81;5076032;28;20198;-58
2022/03/22 00:40:17;;;;;;;23.70;14.27;;;;;;;1.96;100.00;96627.72;5075946;28;20527;-71
2022/03/22 00:42:46;;;;;;;20.17;13.40;;;;;;;1.92;100.00;96628.66;5076011;28;20192;-71
2022/03/22 00:45:17;;;;;;;22.50;14.53;;;;;;;1.90;100.00;96628.97;5075791;28;20220;-72
2022/03/22 00:47:47;;;;;;;20.47;13.37;;;;;;;1.85;100.00;96629.13;5076328;28;20294;-71
2022/03/22 00:50:13;;;;;;;22.73;13.90;;;;;;;1.82;100.00;96629.75;5093554;28;20192;-72
2022/03/22 00:52:39;;;;;;;23.40;14.00;;;;;;;1.81;100.00;96617.41;5075611;28;20183;-71
2022/03/22 00:55:05;;;;;;;22.20;13.97;;;;;;;1.80;100.00;96623.91;5075953;28;20256;-57
2022/03/22 00:57:33;;;;;;;23.57;14.20;;;;;;;1.78;100.00;96628.81;5075612;28;20188;-58
2022/03/22 01:00:01;;;;;;;20.07;13.23;;;;;;;1.78;100.00;96625.34;5093612;28;20272;-59
2022/03/22 01:02:27;;;;;;;21.23;14.27;;;;;;;1.79;100.00;96626.94;5075373;28;20210;-59
2022/03/22 01:04:53;;;;;;;22.60;13.20;;;;;;;1.77;100.00;96624.53;5075809;28;20198;-59
2022/03/22 01:07:18;;;;;;;26.27;14.07;;;;;;;1.73;100.00;96634.38;5075372;28;20208;-59
2022/03/22 01:09:43;;;;;;;20.53;13.27;;;;;;;1.68;100.00;96623.75;5075646;28;20195;-59
2022/03/22 01:12:09;;;;;;;19.73;13.30;;;;;;;1.64;100.00;96625.47;5075457;28;20202;-59
2022/03/22 01:14:34;;;;;;;19.27;13.37;;;;;;;1.59;100.00;96625.66;5075170;28;20187;-57
2022/03/22 01:17:00;;;;;;;20.57;13.47;;;;;;;1.56;100.00;96628.19;5075367;28;20252;-59
2022/03/22 01:19:25;;;;;;;20.77;13.33;;;;;;;1.52;100.00;96628.00;5075519;28;20190;-59
2022/03/22 01:21:51;;;;;;;19.73;13.53;;;;;;;1.46;100.00;96615.81;5075346;28;20218;-59
2022/03/22 01:24:17;;;;;;;21.00;13.13;;;;;;;1.46;100.00;96623.88;5075740;28;20194;-59
2022/03/22 01:26:42;;;;;;;21.03;12.90;;;;;;;1.48;100.00;96616.28;5075212;28;20225;-59
2022/03/22 01:29:11;;;;;;;19.67;13.70;;;;;;;1.50;100.00;96614.09;5075511;28;20186;-59
2022/03/22 01:31:36;;;;;;;22.27;12.93;;;;;;;1.48;100.00;96613.59;5075637;28;20208;-58
2022/03/22 01:34:01;;;;;;;20.60;13.47;;;;;;;1.46;100.00;96623.09;5075421;28;20191;-63
2022/03/22 01:36:31;;;;;;;20.47;13.07;;;;;;;1.41;100.00;96615.97;5075516;28;20202;-58
2022/03/22 01:38:57;;;;;;;21.10;13.00;;;;;;;1.39;100.00;96607.44;5078621;28;20186;-57
2022/03/22 01:41:22;;;;;;;23.07;12.67;;;;;;;1.30;100.00;96614.69;5078881;28;20245;-57
2022/03/22 01:43:47;;;;;;;19.97;12.70;;;;;;;1.27;100.00;96609.94;5078383;28;20188;-58
2022/03/22 01:46:13;;;;;;;17.43;12.50;;;;;;;1.25;100.00;96611.34;5078532;28;20194;-57
2022/03/22 01:48:40;;;;;;;19.27;12.33;;;;;;;1.23;100.00;96608.97;5079388;28;20600;-56
2022/03/22 01:51:05;;;;;;;17.03;11.57;;;;;;;1.22;100.00;96603.91;5078608;28;20255;-57
2022/03/22 01:53:35;;;;;;;17.67;11.97;;;;;;;1.19;100.00;96608.00;5078616;28;20179;-63
2022/03/22 01:56:00;;;;;;;17.83;12.80;;;;;;;1.17;100.00;96607.53;5078469;28;20183;-63
2022/03/22 01:58:25;;;;;;;20.00;11.93;;;;;;;1.14;100.00;96607.38;5078451;28;20190;-63
2022/03/22 02:05:51;;;;;;;17.70;12.03;;;;;;;1.08;100.00;96601.34;5078534;28;20197;-63
2022/03/22 02:06:33;;;;;;;17.80;12.20;;;;;;;1.01;100.00;96600.22;5096253;28;20245;-63
2022/03/22 02:09:00;;;;;;;18.93;12.90;;;;;;;1.01;100.00;96601.00;5078145;28;20187;-58
2022/03/22 02:11:25;;;;;;;18.40;11.77;;;;;;;0.99;100.00;96603.22;5078203;28;20295;-57
2022/03/22 02:13:50;;;;;;;18.13;12.30;;;;;;;0.95;100.00;96596.88;5078687;28;20229;-52
2022/03/22 02:16:16;;;;;;;17.60;11.57;;;;;;;0.94;100.00;96586.47;5078474;28;20216;-57
2022/03/22 02:18:42;;;;;;;19.93;11.27;;;;;;;0.93;100.00;96588.34;5078615;28;20244;-57
2022/03/22 02:21:09;;;;;;;18.97;11.73;;;;;;;0.90;100.00;96580.91;5077897;28;20219;-57
2022/03/22 02:23:50;;;;;;;19.13;12.13;;;;;;;0.89;100.00;96584.69;5078060;28;20197;-57
2022/03/22 02:26:16;;;;;;;18.73;11.90;;;;;;;0.91;100.00;96579.78;5077689;28;20211;-59
2022/03/22 02:28:45;;;;;;;18.73;11.50;;;;;;;0.95;100.00;96569.22;5078146;28;20277;-61
2022/03/22 02:31:10;;;;;;;17.17;11.27;;;;;;;0.95;100.00;96575.38;5077429;28;20302;-58
2022/03/22 02:33:40;;;;;;;17.27;12.03;;;;;;;0.98;100.00;96574.75;5077761;28;20277;-58
2022/03/22 02:36:06;;;;;;;15.57;11.03;;;;;;;0.98;100.00;96579.34;5077608;28;20191;-58
2022/03/22 02:38:31;;;;;;;16.00;11.23;;;;;;;0.90;100.00;96578.22;5077625;28;20216;-58
2022/03/22 02:40:56;;;;;;;17.63;11.37;;;;;;;0.87;100.00;96578.81;5077659;28;20548;-59
2022/03/22 02:43:22;;;;;;;18.10;11.83;;;;;;;0.84;100.00;96584.03;5077888;28;20191;-57
2022/03/22 02:45:47;;;;;;;16.10;11.00;;;;;;;0.77;100.00;96584.50;5077826;28;20197;-57
2022/03/22 02:48:12;;;;;;;17.57;11.20;;;;;;;0.69;100.00;96589.84;5077386;28;20195;-60
2022/03/22 02:50:38;;;;;;;15.97;10.87;;;;;;;0.62;100.00;96586.81;5077795;28;20238;-60
2022/03/22 02:53:03;;;;;;;20.07;11.20;;;;;;;0.56;100.00;96585.34;5077906;28;20187;-60
2022/03/22 02:55:29;;;;;;;16.43;11.60;;;;;;;0.49;100.00;96583.13;5077729;28;20186;-59
2022/03/22 02:57:54;;;;;;;16.73;12.03;;;;;;;0.46;100.00;96589.09;5077746;28;20201;-60
2022/03/22 03:00:20;;;;;;;18.07;12.07;;;;;;;0.42;100.00;96590.03;5077004;28;20182;-59
2022/03/22 03:02:51;;;;;;;17.80;11.40;;;;;;;0.43;100.00;96589.72;5077929;28;20199;-58
2022/03/22 03:05:17;;;;;;;17.87;11.30;;;;;;;0.43;100.00;96589.72;5077608;28;20187;-73
2022/03/22 03:07:43;;;;;;;16.63;10.90;;;;;;;0.41;100.00;96589.25;5095222;28;20255;-63
2022/03/22 03:10:09;;;;;;;19.90;12.67;;;;;;;0.42;100.00;96588.16;5077255;28;20194;-61
2022/03/22 03:12:35;;;;;;;18.83;12.40;;;;;;;0.43;100.00;96588.94;5077602;28;20190;-62
2022/03/22 03:15:01;;;;;;;18.47;12.23;;;;;;;0.40;100.00;96590.34;5077205;28;20223;-62
2022/03/22 03:17:26;;;;;;;18.40;11.80;;;;;;;0.41;100.00;96602.69;5076900;28;20202;-62
2022/03/22 03:19:52;;;;;;;19.07;11.73;;;;;;;0.36;100.00;96591.28;5077051;28;20190;-62
2022/03/22 03:22:18;;;;;;;22.37;12.50;;;;;;;0.36;100.00;96600.13;5077308;28;20179;-58
2022/03/22 03:24:43;;;;;;;15.47;11.20;;;;;;;0.34;100.00;96601.53;5077469;28;20226;-58
2022/03/22 03:27:08;;;;;;;18.03;11.80;;;;;;;0.31;100.00;96608.31;5076971;28;20209;-58
2022/03/22 03:29:34;;;;;;;19.33;11.67;;;;;;;0.31;100.00;96608.31;5076863;28;20178;-62
2022/03/22 03:31:59;;;;;;;20.53;11.43;;;;;;;0.34;100.00;96613.06;5076859;28;20209;-58
2022/03/22 03:34:24;;;;;;;19.50;12.33;;;;;;;0.34;100.00;96599.66;5076957;28;20190;-61
2022/03/22 03:36:50;;;;;;;17.30;11.57;;;;;;;0.34;100.00;96607.69;5076802;28;20221;-58
2022/03/22 03:39:16;;;;;;;18.20;11.10;;;;;;;0.31;100.00;96611.00;5077316;28;20213;-58
2022/03/22 03:41:53;;;;;;;16.17;11.23;;;;;;;0.30;100.00;96617.47;5076571;28;20185;-61
2022/03/22 03:47:09;;;;;;;19.37;11.37;;;;;;;0.25;100.00;96631.00;5094924;28;20267;-59
2022/03/22 03:49:39;;;;;;;19.33;11.97;;;;;;;0.21;100.00;96623.91;5076625;28;20188;-59
2022/03/22 03:52:10;;;;;;;20.20;11.73;;;;;;;0.16;100.00;96624.00;5076474;28;20194;-59
2022/03/22 03:54:36;;;;;;;17.37;11.53;;;;;;;0.15;100.00;96619.75;5094184;28;20209;-60
2022/03/22 03:57:02;;;;;;;19.00;12.17;;;;;;;0.12;100.00;96615.78;5076289;28;20191;-59
2022/03/22 03:59:27;;;;;;;19.63;11.77;;;;;;;0.12;100.00;96613.09;5076681;28;20181;-72
2022/03/22 04:01:53;;;;;;;19.40;11.77;;;;;;;0.10;100.00;96612.59;5075641;28;20254;-57
2022/03/22 04:04:19;;;;;;;17.30;11.03;;;;;;;0.09;100.00;96611.03;5076234;28;20233;-57
2022/03/22 04:06:45;;;;;;;16.17;11.40;;;;;;;0.06;100.00;96617.00;5076293;28;20736;-57
2022/03/22 04:09:10;;;;;;;16.77;12.20;;;;;;;0.00;100.00;96613.66;5076374;28;20181;-57
2022/03/22 04:11:36;;;;;;;15.33;10.37;;;;;;;-0.03;100.00;96608.13;5076255;28;20178;-56
2022/03/22 04:14:02;;;;;;;18.80;11.90;;;;;;;-0.06;100.00;96608.72;5076653;28;20233;-57
2022/03/22 04:16:27;;;;;;;19.33;11.80;;;;;;;-0.10;100.00;96610.44;5076155;28;20189;-62
2022/03/22 04:18:53;;;;;;;16.90;11.70;;;;;;;-0.13;100.00;96606.47;5076038;28;20190;-58
2022/03/22 04:21:19;;;;;;;16.67;11.30;;;;;;;-0.13;100.00;96613.72;5076051;28;20271;-59
2022/03/22 04:23:44;;;;;;;22.37;12.03;;;;;;;-0.18;100.00;96611.94;5076564;28;20185;-59
2022/03/22 04:26:09;;;;;;;17.33;11.33;;;;;;;-0.25;100.00;96613.47;5075924;28;20184;-59
2022/03/22 04:34:03;;;;;;;18.43;11.97;;;;;;;-0.24;100.00;96617.75;5094473;28;20191;-59
2022/03/22 04:36:29;;;;;;;17.70;11.13;;;;;;;-0.28;100.00;96606.03;5075917;28;20192;-58
2022/03/22 04:38:55;;;;;;;16.23;10.67;;;;;;;-0.32;100.00;96605.84;5075944;28;20543;-63
2022/03/22 04:41:21;;;;;;;18.27;11.50;;;;;;;-0.38;100.00;96611.63;5076130;28;20242;-63
2022/03/22 04:43:46;;;;;;;21.00;11.87;;;;;;;-0.37;100.00;96605.97;5076044;28;20190;-63
2022/03/22 04:46:17;;;;;;;18.63;12.03;;;;;;;-0.38;100.00;96611.63;5075745;28;20226;-63
2022/03/22 04:48:43;;;;;;;17.73;11.87;;;;;;;-0.40;100.00;96619.97;5076530;28;20181;-63
2022/03/22 04:56:46;;;;;;;18.13;11.23;;;;;;;-0.46;100.00;96628.44;5093746;28;20192;-59
2022/03/22 04:59:24;;;;;;;18.63;11.40;;;;;;;-0.45;100.00;96621.97;5075904;28;20233;-59
2022/03/22 05:01:51;;;;;;;19.30;11.10;;;;;;;-0.48;100.00;96630.63;5075686;28;20192;-58
2022/03/22 05:04:16;;;;;;;19.20;12.17;;;;;;;-0.49;100.00;96631.72;5075700;28;20192;-59
2022/03/22 05:06:41;;;;;;;17.47;11.53;;;;;;;-0.51;100.00;96631.25;5075331;28;20210;-59
2022/03/22 05:09:07;;;;;;;18.30;11.73;;;;;;;-0.52;100.00;96638.50;5075527;28;20181;-58
2022/03/22 05:11:33;;;;;;;19.63;11.73;;;;;;;-0.54;100.00;96639.91;5094260;28;20275;-59
2022/03/22 05:13:59;;;;;;;18.13;11.00;;;;;;;-0.57;100.00;96632.44;5079155;28;20215;-58
2022/03/22 05:16:25;;;;;;;19.00;11.13;;;;;;;-0.57;100.00;96640.50;5079357;28;20185;-58
2022/03/22 05:18:51;;;;;;;19.63;12.03;;;;;;;-0.55;100.00;96633.72;5079077;28;20197;-58
2022/03/22 05:21:17;;;;;;;18.30;11.30;;;;;;;-0.52;100.00;96635.00;5078736;28;20183;-57
2022/03/22 05:23:44;;;;;;;23.70;13.43;;;;;;;-0.50;100.00;96640.88;5079360;28;20189;-57
2022/03/22 05:26:10;;;;;;;19.47;12.40;;;;;;;-0.33;100.00;96641.00;5078769;28;20276;-57
2022/03/22 05:28:37;;;;;;;18.20;12.00;;;;;;;0.10;100.00;96642.13;5078540;28;20257;-57
2022/03/22 05:31:03;;;;;;;18.70;12.10;;;;;;;0.67;100.00;96632.34;5079128;28;20274;-71
2022/03/22 05:33:29;;;;;;;20.67;11.43;;;;;;;1.20;100.00;96636.50;5078764;28;20238;-61
2022/03/22 05:35:54;;;;;;;17.77;11.70;;;;;;;1.63;100.00;96642.75;5079086;28;20191;-62
2022/03/22 05:38:20;;;;;;;20.93;11.73;;;;;;;2.17;100.00;96650.19;5078725;28;20232;-62
2022/03/22 05:40:46;;;;;;;17.90;11.60;;;;;;;2.86;100.00;96656.22;5078567;28;20244;-62
2022/03/22 05:43:11;;;;;;;19.63;11.57;;;;;;;3.27;100.00;96651.75;5078484;28;20509;-63
2022/03/22 05:45:37;;;;;;;19.33;11.00;;;;;;;3.84;100.00;96640.44;5095789;28;20202;-63
2022/03/22 05:48:05;;;;;;;20.93;11.60;;;;;;;4.29;100.00;96649.47;5096443;28;20204;-63
2022/03/22 05:50:32;;;;;;;17.63;10.90;;;;;;;4.57;100.00;96645.03;5078924;28;20240;-61
2022/03/22 05:52:57;;;;;;;16.80;11.23;;;;;;;4.88;100.00;96650.78;5078827;28;20178;-57
2022/03/22 05:55:23;;;;;;;17.03;11.53;;;;;;;4.85;100.00;96659.56;5078301;28;20277;-57
2022/03/22 05:57:48;;;;;;;18.00;11.77;;;;;;;5.34;100.00;96647.63;5078441;28;20183;-55
2022/03/22 06:00:14;;;;;;;18.23;11.70;;;;;;;5.57;100.00;96646.84;5078235;28;20219;-57
2022/03/22 06:02:40;;;;;;;15.80;11.63;;;;;;;5.88;100.00;96647.06;5078218;28;20196;-57
2022/03/22 06:05:08;;;;;;;17.80;11.73;;;;;;;6.28;100.00;96644.34;5078014;28;20277;-57
2022/03/22 06:07:37;;;;;;;23.30;14.67;;;;;;;6.81;96.47;96649.28;5077930;28;20243;-55
2022/03/22 06:10:04;;;;;;;17.97;12.73;;;;;;;7.33;90.71;96647.16;5077986;28;20195;-59
2022/03/22 06:12:40;;;;;;;18.57;12.30;;;;;;;7.47;89.04;96641.28;5078353;28;20186;-60
2022/03/22 06:15:17;;;;;;;16.37;11.20;;;;;;;8.12;84.65;96646.66;5078366;28;20242;-59
2022/03/22 06:17:48;;;;;;;15.43;11.50;;;;;;;8.44;80.55;96647.34;5078283;28;20181;-59
2022/03/22 06:20:19;;;;;;;15.37;12.10;;;;;;;9.02;77.33;96641.47;5077926;28;20288;-59
2022/03/22 06:22:45;;;;;;;14.87;11.27;;;;;;;9.60;73.58;96631.94;5095231;28;20190;-59
2022/03/22 06:25:12;;;;;;;15.60;12.30;;;;;;;9.73;71.87;96638.00;5077057;28;20216;-59
2022/03/22 06:27:37;;;;;;;16.40;11.67;;;;;;;9.68;70.65;96635.56;5077998;28;20307;-58
2022/03/22 06:30:07;;;;;;;15.20;11.97;;;;;;;9.67;70.55;96645.69;5077465;28;20214;-58
2022/03/22 06:32:41;;;;;;;14.77;12.10;;;;;;;9.82;69.42;96655.66;5077913;28;20192;-58
2022/03/22 06:35:07;;;;;;;14.07;12.10;;;;;;;10.01;70.05;96649.31;5077644;28;20180;-57
2022/03/22 06:37:34;;;;;;;15.43;12.63;;;;;;;10.47;67.89;96641.75;5077597;28;20586;-57
2022/03/22 06:39:59;;;;;;;16.30;11.97;;;;;;;10.56;66.28;96643.03;5077726;28;20189;-58
2022/03/22 06:42:25;;;;;;;15.60;11.60;;;;;;;10.87;64.98;96653.56;5077478;28;20692;-58
2022/03/22 06:44:50;;;;;;;16.13;12.07;;;;;;;11.65;61.94;96649.66;5077434;28;20216;-57
2022/03/22 06:47:15;;;;;;;13.50;11.37;;;;;;;11.68;60.11;96654.34;5077557;28;20235;-59
2022/03/22 06:49:41;;;;;;;17.80;11.50;;;;;;;12.94;54.74;96655.84;5077231;28;20181;-59
2022/03/22 06:52:06;;;;;;;13.27;11.33;;;;;;;12.69;52.70;96655.00;5077467;28;20184;-59
2022/03/22 06:54:32;;;;;;;13.90;10.63;;;;;;;12.35;52.92;96655.63;5078119;28;20179;-57
2022/03/22 06:56:57;;;;;;;11.53;10.33;;;;;;;13.03;50.99;96656.31;5077686;28;20206;-58
2022/03/22 06:59:23;;;;;;;14.13;10.93;;;;;;;13.40;50.32;96660.69;5077766;28;20241;-57
2022/03/22 07:01:49;;;;;;;13.37;11.33;;;;;;;13.68;49.09;96657.97;5076955;28;20203;-57
2022/03/22 07:04:14;;;;;;;13.63;11.87;;;;;;;14.51;48.57;96659.88;5077360;28;20271;-57
2022/03/22 07:06:39;;;;;;;14.67;11.27;;;;;;;14.10;47.46;96650.50;5076860;28;20212;-64
2022/03/22 07:09:08;;;;;;;17.93;12.33;;;;;;;14.31;46.56;96652.47;5077345;28;20271;-63
2022/03/22 07:11:52;;;;;;;14.13;12.03;;;;;;;14.95;45.51;96657.34;5077059;28;20192;-62
2022/03/22 07:14:18;;;;;;;15.70;11.77;;;;;;;15.24;44.16;96645.00;5077142;28;20180;-63
2022/03/22 07:16:47;;;;;;;15.90;11.67;;;;;;;15.41;43.31;96652.38;5077246;28;20188;-62
2022/03/22 07:19:13;;;;;;;17.27;12.37;;;;;;;15.60;43.28;96654.63;5076611;28;20184;-61
2022/03/22 07:21:39;;;;;;;16.97;11.30;;;;;;;15.61;42.39;96660.91;5076713;28;20189;-56
2022/03/22 07:24:04;;;;;;;12.53;11.33;;;;;;;15.80;42.39;96654.84;5077063;28;20180;-62
2022/03/22 07:26:30;;;;;;;14.73;11.90;;;;;;;16.06;41.06;96660.53;5076096;28;20209;-62
2022/03/22 07:28:55;;;;;;;13.20;11.60;;;;;;;16.52;40.40;96659.31;5076583;28;20227;-62
2022/03/22 07:31:20;;;;;;;13.03;10.87;;;;;;;16.43;40.39;96666.09;5076896;28;20198;-62
2022/03/22 07:33:46;;;;;;;13.43;11.50;;;;;;;16.66;39.83;96659.97;5076872;28;20177;-63
2022/03/22 07:36:11;;;;;;;14.20;10.87;;;;;;;16.49;40.30;96666.44;5077252;28;20279;-62
2022/03/22 07:38:36;;;;;;;14.57;11.53;;;;;;;16.29;40.09;96674.47;5077028;28;20223;-57
2022/03/22 07:41:02;;;;;;;12.63;10.00;;;;;;;16.36;40.92;96670.91;5076796;28;20183;-57
2022/03/22 07:43:29;;;;;;;14.27;11.27;;;;;;;16.42;40.20;96667.31;5076264;28;20645;-52
2022/03/22 07:45:55;;;;;;;14.70;11.57;;;;;;;16.47;38.33;96674.34;5076633;28;20195;-53
2022/03/22 07:48:20;;;;;;;14.97;10.73;;;;;;;17.33;37.32;96676.47;5076456;28;20201;-51
2022/03/22 07:53:29;;;;;;;11.47;10.30;;;;;;;18.25;35.53;96664.81;5094769;28;20191;-49
2022/03/22 07:55:55;;;;;;;13.90;11.37;;;;;;;18.31;35.16;96663.09;5076608;28;20184;-51
2022/03/22 07:58:20;;;;;;;12.87;10.83;;;;;;;18.39;35.60;96656.28;5076776;28;20181;-55
2022/03/22 08:00:46;;;;;;;14.20;10.83;;;;;;;19.21;33.93;96657.81;5076692;28;20176;-60
2022/03/22 08:03:15;;;;;;;13.67;10.73;;;;;;;19.75;33.35;96663.75;5076257;28;20251;-61
2022/03/22 08:05:44;;;;;;;13.93;11.07;;;;;;;19.75;32.33;96660.19;5076629;28;20180;-62
2022/03/22 08:08:09;;;;;;;12.93;11.55;;;;;;;19.94;32.35;96662.91;5076343;28;20212;-62
2022/03/22 08:10:35;;;;;;;12.30;10.80;;;;;;;20.82;31.59;96666.19;5076136;28;20262;-62
2022/03/22 08:13:02;;;;;;;12.75;10.88;;;;;;;21.14;30.46;96661.34;5094321;28;20226;-61
2022/03/22 08:15:28;;;;;;;12.70;10.68;;;;;;;21.45;29.69;96662.38;5076404;28;20613;-57
2022/03/22 08:17:54;;;;;;;11.65;10.55;;;;;;;21.61;29.51;96667.09;5076288;28;20181;-55
2022/03/22 08:20:19;;;;;;;12.10;10.90;;;;;;;21.15;29.89;96662.09;5075892;28;20263;-57
2022/03/22 08:22:58;;;;;;;13.43;10.73;;;;;;;21.94;28.68;96663.69;5075882;28;20224;-57
2022/03/22 08:25:36;;;;;;;12.23;10.93;;;;;;;21.64;28.89;96664.19;5075823;28;20231;-57
2022/03/22 08:28:03;;;;;;;11.50;10.40;;;;;;;21.71;28.42;96661.22;5076628;28;20200;-55
2022/03/22 08:30:30;;;;;;;12.55;10.68;;;;;;;20.79;29.67;96662.28;5076025;28;20188;-56
2022/03/22 08:33:03;;;;;;;14.90;11.60;;;;;;;20.71;29.94;96663.72;5075939;28;20629;-55
2022/03/22 08:35:29;;;;;;;13.60;11.27;;;;;;;21.00;29.77;96656.19;5076319;28;20188;-54
2022/03/22 08:37:55;;;;;;;13.18;11.77;;;;;;;21.18;30.02;96662.00;5076088;28;20188;-57
2022/03/22 08:40:21;;;;;;;12.48;11.13;;;;;;;22.40;28.67;96659.38;5075952;28;20191;-59
2022/03/22 08:42:48;;;;;;;13.68;11.50;;;;;;;22.21;28.37;96665.97;5075667;28;20633;-61
2022/03/22 08:45:19;;;;;;;12.57;11.02;;;;;;;21.74;28.01;96654.75;5075997;28;20196;-59
2022/03/22 08:47:46;;;;;;;12.05;10.85;;;;;;;21.98;28.42;96656.00;5078438;28;20219;-60
2022/03/22 08:50:14;;;;;;;12.73;11.32;;;;;;;22.02;27.86;96658.66;5079479;28;20199;-59
2022/03/22 08:53:01;;;;;;;13.00;11.25;;;;;;;21.81;28.60;96648.97;5097083;28;20192;-57
2022/03/22 08:55:26;;;;;;;14.93;11.43;;;;;;;22.48;27.61;96658.69;5079153;28;20195;-58
2022/03/22 08:57:52;;;;;;;12.68;10.80;;;;;;;22.58;27.08;96647.66;5079236;28;20192;-59
2022/03/22 09:00:19;;;;;;;13.73;10.95;;;;;;;22.04;27.51;96662.53;5079321;28;20215;-58
2022/03/22 09:02:46;;;;;;;13.02;11.70;;;;;;;22.51;27.09;96656.25;5078942;28;20210;-58
2022/03/22 09:07:58;;;;;;;13.98;10.57;;;;;;;21.84;28.10;96650.88;5097113;28;20247;-58
2022/03/22 09:10:30;;;;;;;14.02;11.23;;;;;;;22.37;26.83;96641.53;5079405;28;20326;-59
2022/03/22 09:12:56;;;;;;;13.50;11.38;;;;;;;22.34;27.23;96636.09;5079526;28;20721;-60
2022/03/22 09:15:24;;;;;;;13.25;10.82;;;;;;;21.86;27.79;96639.31;5078784;28;20191;-58
2022/03/22 09:17:49;;;;;;;15.10;11.45;;;;;;;22.73;27.09;96634.78;5078931;28;20207;-59
2022/03/22 09:20:16;;;;;;;15.23;11.65;;;;;;;22.88;26.61;96633.03;5078747;28;20176;-59
2022/03/22 09:22:43;;;;;;;12.88;11.05;;;;;;;22.87;26.42;96634.28;5079205;28;20180;-59
2022/03/22 09:25:09;;;;;;;12.98;10.90;;;;;;;24.03;25.54;96630.59;5079190;28;20188;-59
2022/03/22 09:27:34;;;;;;;14.43;11.27;;;;;;;24.18;24.69;96626.00;5078806;28;20424;-60
2022/03/22 09:30:00;;;;;;;15.68;11.25;;;;;;;24.34;24.68;96628.50;5078966;28;20301;-59
2022/03/22 09:32:25;;;;;;;12.80;11.18;;;;;;;23.48;25.68;96635.16;5078896;28;20195;-83
2022/03/22 09:34:52;;;;;;;13.10;11.48;;;;;;;22.97;26.18;96630.31;5078807;28;20219;-85
2022/03/22 09:37:17;;;;;;;17.05;13.68;;;;;;;23.01;26.14;96633.78;5079148;28;20188;-74
2022/03/22 09:39:45;;;;;;;14.80;11.27;;;;;;;22.70;26.68;96632.91;5078866;28;20184;-76
2022/03/22 09:42:11;;;;;;;14.38;12.07;;;;;;;23.05;25.92;96634.41;5078669;28;20329;-80
2022/03/22 09:44:36;;;;;;;12.57;11.25;;;;;;;22.67;26.52;96631.00;5078647;28;20230;-80
2022/03/22 09:47:03;;;;;;;13.23;11.68;;;;;;;22.96;26.12;96626.75;5078849;28;20204;-77
2022/03/22 09:49:29;;;;;;;18.67;12.18;;;;;;;23.09;26.38;96612.75;5078313;28;20710;-77
2022/03/22 09:51:54;;;;;;;15.32;11.60;;;;;;;23.56;25.97;96613.34;5096389;28;20188;-57
2022/03/22 09:54:22;;;;;;;14.88;12.10;;;;;;;23.59;25.36;96623.56;5078484;28;20186;-58
2022/03/22 09:56:49;;;;;;;13.85;12.10;;;;;;;23.91;25.10;96618.31;5078464;28;20184;-59
2022/03/22 09:59:15;;;;;;;15.95;12.80;;;;;;;23.33;25.69;96611.84;5076936;28;20279;-59
2022/03/22 10:01:42;;;;;;;15.23;12.93;;;;;;;23.01;26.01;96625.41;5078969;28;20284;-59
2022/03/22 10:04:13;;;;;;;19.60;13.95;;;;;;;23.29;25.66;96613.19;5078235;28;20184;-59
2022/03/22 10:06:57;;;;;;;17.48;12.95;;;;;;;23.20;25.65;96618.72;5078209;28;20738;-58
2022/03/22 10:09:28;;;;;;;17.90;13.20;;;;;;;22.55;25.83;96629.06;5078391;28;20213;-61
2022/03/22 10:11:53;;;;;;;18.27;14.15;;;;;;;22.52;26.22;96625.94;5078023;28;20541;-62
2022/03/22 10:14:19;;;;;;;13.15;11.80;;;;;;;22.40;25.47;96623.94;5077919;28;20212;-60
2022/03/22 10:16:51;;;;;;;15.95;11.95;;;;;;;21.54;26.66;96623.59;5077959;28;20226;-61
2022/03/22 10:19:23;;;;;;;16.55;11.80;;;;;;;21.81;26.23;96626.72;5077604;28;20191;-60
2022/03/22 10:21:49;;;;;;;14.30;12.10;;;;;;;22.73;25.46;96618.06;5096089;28;20181;-60
2022/03/22 10:24:15;;;;;;;15.82;12.32;;;;;;;21.85;26.55;96615.50;5078061;28;20203;-66
2022/03/22 10:26:44;;;;;;;13.10;11.80;;;;;;;20.65;27.63;96617.47;5077788;28;20208;-60
2022/03/22 10:29:11;;;;;;;14.13;11.75;;;;;;;20.73;27.13;96613.28;5078443;28;20208;-58
2022/03/22 10:31:40;;;;;;;12.75;11.27;;;;;;;21.63;26.49;96609.78;5078156;28;20185;-58
2022/03/22 10:34:15;;;;;;;18.30;11.35;;;;;;;21.20;27.13;96620.66;5077746;28;20184;-59
2022/03/22 10:36:41;;;;;;;16.17;11.73;;;;;;;21.60;26.38;96605.13;5078109;28;20275;-58
2022/03/22 10:39:09;;;;;;;14.80;11.35;;;;;;;22.35;25.68;96609.81;5078022;28;20276;-58
2022/03/22 10:41:44;;;;;;;15.43;11.90;;;;;;;21.09;26.37;96609.06;5077870;28;20187;-59
2022/03/22 10:44:20;;;;;;;14.70;10.85;;;;;;;21.40;26.36;96612.91;5077411;28;20184;-53
2022/03/22 10:46:46;;;;;;;13.27;11.10;;;;;;;22.52;24.91;96609.22;5078018;28;20204;-73
2022/03/22 10:49:14;;;;;;;12.90;11.00;;;;;;;22.18;25.45;96606.41;5077253;28;20189;-74
2022/03/22 10:51:48;;;;;;;11.87;10.67;;;;;;;21.21;25.81;96613.88;5077481;28;20275;-73
2022/03/22 10:54:17;;;;;;;13.70;11.13;;;;;;;20.25;27.78;96611.41;5077486;28;20183;-73
2022/03/22 10:56:46;;;;;;;14.93;11.60;;;;;;;20.46;27.33;96616.41;5077445;28;20604;-71
2022/03/22 10:59:14;;;;;;;14.40;11.33;;;;;;;20.72;26.88;96606.94;5077396;28;20237;-73
2022/03/22 11:01:44;;;;;;;15.60;11.10;;;;;;;21.88;26.02;96604.25;5077956;28;20184;-62
2022/03/22 11:04:10;;;;;;;15.50;11.07;;;;;;;21.71;25.48;96599.22;5077272;28;20188;-63
2022/03/22 11:06:37;;;;;;;13.43;10.73;;;;;;;22.86;24.14;96588.13;5077668;28;20219;-62
2022/03/22 11:09:03;;;;;;;12.20;10.87;;;;;;;22.09;24.74;96603.53;5076868;28;20203;-63
2022/03/22 11:11:31;;;;;;;12.93;11.13;;;;;;;21.89;24.93;96591.88;5077465;28;20184;-64
2022/03/22 11:13:58;;;;;;;13.07;11.27;;;;;;;20.08;27.02;96601.53;5077066;28;20184;-63
2022/03/22 11:16:28;;;;;;;13.38;10.68;;;;;;;20.85;26.19;96593.88;5077165;28;20234;-63
2022/03/22 11:18:56;;;;;;;14.53;10.37;;;;;;;21.41;25.55;96586.66;5077076;28;20187;-63
2022/03/22 11:21:21;;;;;;;13.45;11.05;;;;;;;21.27;26.22;96586.31;5095173;28;20184;-62
2022/03/22 11:23:47;;;;;;;11.40;10.25;;;;;;;21.25;25.86;96578.44;5076875;28;20180;-74
2022/03/22 11:26:16;;;;;;;12.27;10.27;;;;;;;20.26;26.39;96585.22;5076968;28;20177;-75
2022/03/22 11:28:41;;;;;;;12.68;10.82;;;;;;;19.86;26.85;96577.53;5077229;28;20638;-74
2022/03/22 11:31:10;;;;;;;15.10;10.45;;;;;;;18.81;28.46;96575.97;5077293;28;20187;-76
2022/03/22 11:36:28;;;;;;;13.52;10.52;;;;;;;17.87;29.65;96584.09;5095100;28;20583;-77
2022/03/22 11:38:59;;;;;;;11.27;10.07;;;;;;;17.27;29.92;96580.69;5076899;28;20183;-74
2022/03/22 11:44:32;;;;;;;15.20;10.47;;;;;;;15.88;32.59;96582.75;5094691;28;20183;-72